createdAt,value
2023-04-21T00:01:35.519Z,8.20
2023-04-21T00:03:38.945Z,8.15
2023-04-21T00:05:42.699Z,8.11
2023-04-21T00:07:45.923Z,8.06
2023-04-21T00:09:49.011Z,8.03
2023-04-21T00:11:52.047Z,8.00
2023-04-21T00:13:56.149Z,7.97
2023-04-21T00:16:00.581Z,7.96
2023-04-21T00:18:03.764Z,7.98
2023-04-21T00:20:09.050Z,7.96
2023-04-21T00:22:14.973Z,7.93
2023-04-21T00:24:18.206Z,7.91
2023-04-21T00:26:21.359Z,7.90
2023-04-21T00:28:26.238Z,7.88
2023-04-21T00:30:29.305Z,7.87
2023-04-21T00:32:35.644Z,7.82
2023-04-21T00:34:38.907Z,7.78
2023-04-21T00:36:41.893Z,7.77
2023-04-21T00:38:45.000Z,7.78
2023-04-21T00:40:48.072Z,7.77
2023-04-21T00:42:51.197Z,7.70
2023-04-21T00:44:54.359Z,7.65
2023-04-21T00:46:57.501Z,7.63
2023-04-21T00:49:04.549Z,7.61
2023-04-21T00:51:07.667Z,7.60
2023-04-21T00:53:11.243Z,7.58
2023-04-21T00:55:14.582Z,7.57
2023-04-21T00:57:18.653Z,7.54
2023-04-21T00:59:22.058Z,7.50
2023-04-21T01:01:25.193Z,7.51
2023-04-21T01:03:28.435Z,7.50
2023-04-21T01:05:33.701Z,7.52
2023-04-21T01:07:36.964Z,7.53
2023-04-21T01:09:40.073Z,7.52
2023-04-21T01:11:43.104Z,7.52
2023-04-21T01:13:46.147Z,7.51
2023-04-21T01:15:49.324Z,7.50
2023-04-21T01:17:54.340Z,7.48
2023-04-21T01:19:58.232Z,7.45
2023-04-21T01:22:04.891Z,7.46
2023-04-21T01:24:08.550Z,7.45
2023-04-21T01:26:11.715Z,7.46
2023-04-21T01:28:14.785Z,7.46
2023-04-21T01:30:17.811Z,7.45
2023-04-21T01:32:23.417Z,7.44
2023-04-21T01:34:28.930Z,7.46
2023-04-21T01:36:32.090Z,7.44
2023-04-21T01:38:39.517Z,7.45
2023-04-21T01:40:43.118Z,7.44
2023-04-21T01:42:46.314Z,7.45
2023-04-21T01:44:50.735Z,7.44
2023-04-21T01:46:54.050Z,7.44
2023-04-21T01:48:57.178Z,7.45
2023-04-21T01:51:00.388Z,7.48
2023-04-21T01:53:03.574Z,7.50
2023-04-21T01:55:08.803Z,7.51
2023-04-21T01:57:12.075Z,7.53
2023-04-21T01:59:16.532Z,7.52
2023-04-21T02:01:19.763Z,7.54
2023-04-21T02:03:23.054Z,7.56
2023-04-21T02:05:26.347Z,7.56
2023-04-21T02:07:29.421Z,7.59
2023-04-21T02:09:33.042Z,7.61
2023-04-21T02:11:37.473Z,7.61
2023-04-21T02:13:40.569Z,7.63
2023-04-21T02:15:43.841Z,7.64
2023-04-21T02:17:47.630Z,7.63
2023-04-21T02:19:50.723Z,7.60
2023-04-21T02:21:53.855Z,7.60
2023-04-21T02:23:58.182Z,7.64
2023-04-21T02:26:02.909Z,7.63
2023-04-21T02:28:12.455Z,7.65
2023-04-21T02:30:15.647Z,7.68
2023-04-21T02:32:25.438Z,7.70
2023-04-21T02:34:29.556Z,7.72
2023-04-21T02:36:32.567Z,7.74
2023-04-21T02:38:35.695Z,7.72
2023-04-21T02:40:38.778Z,7.68
2023-04-21T02:42:41.784Z,7.60
2023-04-21T02:44:46.920Z,7.54
2023-04-21T02:46:50.110Z,7.49
2023-04-21T02:48:53.192Z,7.45
2023-04-21T02:50:56.244Z,7.41
2023-04-21T02:52:59.321Z,7.38
2023-04-21T02:55:03.402Z,7.34
2023-04-21T02:57:06.753Z,7.32
2023-04-21T02:59:11.455Z,7.33
2023-04-21T03:01:17.621Z,7.30
2023-04-21T03:03:21.023Z,7.28
2023-04-21T03:05:24.213Z,7.28
2023-04-21T03:07:27.196Z,7.28
2023-04-21T03:09:30.376Z,7.31
2023-04-21T03:11:33.418Z,7.32
2023-04-21T03:13:36.535Z,7.34
2023-04-21T03:15:39.600Z,7.38
2023-04-21T03:17:44.109Z,7.39
2023-04-21T03:19:47.245Z,7.39
2023-04-21T03:21:50.356Z,7.34
2023-04-21T03:23:54.259Z,7.30
2023-04-21T03:25:57.268Z,7.27
2023-04-21T03:28:00.354Z,7.28
2023-04-21T03:30:03.914Z,7.23
2023-04-21T03:32:07.136Z,7.22
2023-04-21T03:34:11.606Z,7.23
2023-04-21T03:36:15.436Z,7.21
2023-04-21T03:38:18.585Z,7.17
2023-04-21T03:40:22.527Z,7.17
2023-04-21T03:42:26.283Z,7.16
2023-04-21T03:44:29.801Z,7.16
2023-04-21T03:46:32.916Z,7.15
2023-04-21T03:48:36.478Z,7.15
2023-04-21T03:50:40.929Z,7.18
2023-04-21T03:52:44.002Z,7.16
2023-04-21T03:54:47.036Z,7.16
2023-04-21T03:56:50.142Z,7.14
2023-04-21T03:58:53.351Z,7.12
2023-04-21T04:00:56.412Z,7.13
2023-04-21T04:02:59.625Z,7.11
2023-04-21T04:05:03.621Z,7.06
2023-04-21T04:07:10.055Z,7.04
2023-04-21T04:09:13.102Z,7.01
2023-04-21T04:11:16.266Z,6.98
2023-04-21T04:13:19.497Z,6.98
2023-04-21T04:15:22.547Z,6.99
2023-04-21T04:17:25.733Z,6.97
2023-04-21T04:19:31.951Z,6.94
2023-04-21T04:21:35.199Z,6.94
2023-04-21T04:23:39.499Z,6.94
2023-04-21T04:25:42.824Z,6.92
2023-04-21T04:27:46.402Z,6.90
2023-04-21T04:29:49.827Z,6.89
2023-04-21T04:31:53.224Z,6.89
2023-04-21T04:33:56.347Z,6.89
2023-04-21T04:36:01.900Z,6.91
2023-04-21T04:38:04.923Z,6.92
2023-04-21T04:40:12.125Z,6.90
2023-04-21T04:42:15.177Z,6.88
2023-04-21T04:44:19.005Z,6.85
2023-04-21T04:46:22.490Z,6.82
2023-04-21T04:48:26.387Z,6.81
2023-04-21T04:50:29.516Z,6.78
2023-04-21T04:52:32.715Z,6.85
2023-04-21T04:54:36.344Z,6.89
2023-04-21T04:56:40.730Z,6.90
2023-04-21T04:58:46.448Z,6.91
2023-04-21T05:00:49.452Z,6.87
2023-04-21T05:02:52.572Z,6.85
2023-04-21T05:04:55.789Z,6.83
2023-04-21T05:06:58.913Z,6.85
2023-04-21T05:09:02.049Z,6.86
2023-04-21T05:11:05.297Z,6.92
2023-04-21T05:13:09.680Z,7.01
2023-04-21T05:15:12.807Z,7.10
2023-04-21T05:17:16.259Z,7.19
2023-04-21T05:19:19.356Z,7.26
2023-04-21T05:21:27.808Z,7.34
2023-04-21T05:23:31.041Z,7.40
2023-04-21T05:25:34.364Z,7.46
2023-04-21T05:27:37.411Z,7.51
2023-04-21T05:29:41.964Z,7.59
2023-04-21T05:31:45.077Z,7.70
2023-04-21T05:33:48.189Z,7.82
2023-04-21T05:35:52.453Z,7.93
2023-04-21T05:37:58.210Z,8.01
2023-04-21T05:40:01.262Z,8.05
2023-04-21T05:42:04.772Z,8.11
2023-04-21T05:44:08.340Z,8.13
2023-04-21T05:46:12.800Z,8.22
2023-04-21T05:48:16.038Z,8.38
2023-04-21T05:50:19.206Z,8.46
2023-04-21T05:52:22.850Z,8.46
2023-04-21T05:54:25.973Z,8.42
2023-04-21T05:56:29.118Z,8.39
2023-04-21T05:58:32.222Z,8.40
2023-04-21T06:00:35.333Z,8.41
2023-04-21T06:02:39.953Z,8.42
2023-04-21T06:04:43.543Z,8.43
2023-04-21T06:06:46.790Z,8.45
2023-04-21T06:08:49.877Z,8.48
2023-04-21T06:10:52.971Z,8.54
2023-04-21T06:12:56.919Z,8.56
2023-04-21T06:14:59.949Z,8.60
2023-04-21T06:17:03.043Z,8.61
2023-04-21T06:19:07.470Z,8.62
2023-04-21T06:21:10.599Z,8.66
2023-04-21T06:23:13.652Z,8.72
2023-04-21T06:25:16.748Z,8.77
2023-04-21T06:27:19.964Z,8.85
2023-04-21T06:29:23.030Z,8.92
2023-04-21T06:31:26.305Z,8.99
2023-04-21T06:33:29.802Z,9.09
2023-04-21T06:35:34.366Z,9.21
2023-04-21T06:37:37.492Z,9.35
2023-04-21T06:39:40.515Z,9.44
2023-04-21T06:41:43.935Z,9.48
2023-04-21T06:43:47.057Z,9.50
2023-04-21T06:45:50.211Z,9.53
2023-04-21T06:47:53.289Z,9.56
2023-04-21T06:49:56.407Z,9.57
2023-04-21T06:52:01.017Z,9.60
2023-04-21T06:54:04.270Z,9.63
2023-04-21T06:56:07.932Z,9.67
2023-04-21T06:58:11.351Z,9.70
2023-04-21T07:00:15.505Z,9.75
2023-04-21T07:02:18.674Z,9.81
2023-04-21T07:04:21.969Z,9.80
2023-04-21T07:06:25.006Z,9.84
2023-04-21T07:08:29.485Z,9.91
2023-04-21T07:10:32.518Z,9.94
2023-04-21T07:12:35.639Z,9.99
2023-04-21T07:14:38.713Z,10.12
2023-04-21T07:16:41.891Z,10.27
2023-04-21T07:18:45.110Z,10.65
2023-04-21T07:20:48.212Z,11.04
2023-04-21T07:22:51.376Z,11.19
2023-04-21T07:24:55.886Z,11.11
2023-04-21T07:26:58.908Z,10.99
2023-04-21T07:29:02.058Z,10.88
2023-04-21T07:31:05.464Z,10.80
2023-04-21T07:33:09.196Z,10.77
2023-04-21T07:35:12.308Z,10.73
2023-04-21T07:37:15.310Z,10.76
2023-04-21T07:39:18.532Z,10.81
2023-04-21T07:41:23.270Z,10.87
2023-04-21T07:43:26.910Z,10.83
2023-04-21T07:45:30.031Z,10.75
2023-04-21T07:47:33.445Z,10.77
2023-04-21T07:49:36.634Z,10.82
2023-04-21T07:51:40.272Z,10.95
2023-04-21T07:53:43.440Z,11.03
2023-04-21T07:55:47.125Z,11.09
2023-04-21T07:57:54.182Z,11.11
2023-04-21T07:59:57.274Z,11.14
2023-04-21T08:02:00.646Z,11.17
2023-04-21T08:04:03.934Z,11.23
2023-04-21T08:06:08.256Z,11.24
2023-04-21T08:08:11.392Z,11.29
2023-04-21T08:10:14.984Z,11.29
2023-04-21T08:12:18.268Z,11.37
2023-04-21T08:14:23.083Z,11.46
2023-04-21T08:16:26.147Z,11.51
2023-04-21T08:18:29.426Z,11.54
2023-04-21T08:20:33.179Z,11.51
2023-04-21T08:22:36.804Z,11.52
2023-04-21T08:24:39.961Z,11.60
2023-04-21T08:26:43.074Z,11.71
2023-04-21T08:28:48.826Z,11.86
2023-04-21T08:30:53.292Z,11.97
2023-04-21T08:32:56.418Z,11.97
2023-04-21T08:34:59.492Z,11.98
2023-04-21T08:37:02.605Z,12.02
2023-04-21T08:39:05.685Z,12.05
2023-04-21T08:41:09.690Z,12.13
2023-04-21T08:43:13.380Z,12.24
2023-04-21T08:45:16.787Z,12.39
2023-04-21T08:47:22.109Z,12.54
2023-04-21T08:49:25.817Z,12.67
2023-04-21T08:51:30.300Z,12.80
2023-04-21T08:53:33.414Z,12.90
2023-04-21T08:55:36.713Z,12.98
2023-04-21T08:57:39.942Z,13.10
2023-04-21T08:59:42.982Z,13.15
2023-04-21T09:02:08.828Z,13.26
2023-04-21T09:04:19.740Z,13.40
2023-04-21T09:06:23.520Z,13.55
2023-04-21T09:08:28.547Z,13.77
2023-04-21T09:10:31.582Z,14.09
2023-04-21T09:12:34.689Z,14.29
2023-04-21T09:14:37.690Z,14.40
2023-04-21T09:16:40.898Z,14.67
2023-04-21T09:18:44.434Z,14.85
2023-04-21T09:20:51.174Z,14.97
2023-04-21T09:22:55.292Z,15.19
2023-04-21T09:25:00.802Z,15.45
2023-04-21T09:27:04.938Z,15.64
2023-04-21T09:29:08.231Z,15.49
2023-04-21T09:31:16.580Z,15.39
2023-04-21T09:33:28.043Z,15.56
2023-04-21T09:35:34.958Z,15.81
2023-04-21T09:37:39.948Z,16.02
2023-04-21T09:40:03.634Z,15.89
2023-04-21T09:42:08.122Z,15.78
2023-04-21T09:44:11.256Z,15.70
2023-04-21T09:46:14.680Z,15.65
2023-04-21T09:48:20.605Z,15.76
2023-04-21T09:51:07.183Z,15.81
2023-04-21T09:52:52.352Z,15.80
2023-04-21T09:54:59.812Z,15.91
2023-04-21T09:57:05.174Z,16.12
2023-04-21T09:59:08.796Z,16.47
2023-04-21T10:01:13.205Z,16.62
2023-04-21T10:03:18.675Z,16.77
2023-04-21T10:05:21.960Z,17.10
2023-04-21T10:07:25.253Z,17.12
2023-04-21T10:09:33.036Z,17.37
2023-04-21T10:11:37.171Z,17.48
2023-04-21T10:13:41.366Z,17.46
2023-04-21T10:15:44.589Z,17.41
2023-04-21T10:17:49.386Z,17.39
2023-04-21T10:19:53.654Z,16.94
2023-04-21T10:21:57.554Z,16.72
2023-04-21T10:24:00.687Z,16.77
2023-04-21T10:26:07.808Z,16.63
2023-04-21T10:28:11.021Z,16.66
2023-04-21T10:30:22.565Z,16.61
2023-04-21T10:32:33.297Z,16.54
2023-04-21T10:34:37.969Z,16.36
2023-04-21T10:36:45.041Z,16.21
2023-04-21T10:38:56.612Z,16.06
2023-04-21T10:41:27.141Z,16.20
2023-04-21T10:43:45.208Z,16.10
2023-04-21T10:45:49.758Z,16.06
2023-04-21T10:47:54.407Z,16.18
2023-04-21T10:49:58.387Z,16.10
2023-04-21T10:52:06.216Z,16.17
2023-04-21T10:54:09.329Z,16.31
2023-04-21T10:56:14.012Z,16.45
2023-04-21T10:58:17.837Z,16.48
2023-04-21T11:00:23.035Z,16.42
2023-04-21T11:02:26.472Z,16.28
2023-04-21T11:04:30.472Z,16.30
2023-04-21T11:06:34.118Z,16.42
2023-04-21T11:08:56.055Z,16.50
2023-04-21T11:10:59.720Z,16.66
2023-04-21T11:13:04.215Z,16.64
2023-04-21T11:15:09.167Z,16.61
2023-04-21T11:17:14.403Z,16.74
2023-04-21T11:19:17.554Z,16.69
2023-04-21T11:21:22.038Z,16.55
2023-04-21T11:23:25.302Z,16.70
2023-04-21T11:25:28.360Z,16.81
2023-04-21T11:27:31.693Z,16.90
2023-04-21T11:29:36.252Z,17.01
2023-04-21T11:31:41.284Z,17.03
2023-04-21T11:33:44.973Z,17.19
2023-04-21T11:35:48.090Z,17.29
2023-04-21T11:37:52.513Z,17.01
2023-04-21T11:39:59.697Z,16.98
2023-04-21T11:42:03.268Z,17.15
2023-04-21T11:44:08.041Z,17.25
2023-04-21T11:46:18.849Z,17.42
2023-04-21T11:48:22.023Z,17.46
2023-04-21T11:50:32.511Z,17.42
2023-04-21T11:52:37.669Z,17.46
2023-04-21T11:54:40.981Z,17.43
2023-04-21T11:56:45.153Z,17.43
2023-04-21T11:58:48.641Z,17.46
2023-04-21T12:00:52.008Z,17.42
2023-04-21T12:02:57.912Z,17.44
2023-04-21T12:05:03.016Z,17.46
2023-04-21T12:07:06.649Z,17.53
2023-04-21T12:09:09.873Z,17.57
2023-04-21T12:11:12.985Z,17.55
2023-04-21T12:13:23.933Z,17.67
2023-04-21T12:15:27.119Z,17.70
2023-04-21T12:17:37.807Z,17.75
2023-04-21T12:19:43.065Z,17.65
2023-04-21T12:21:46.237Z,17.77
2023-04-21T12:23:49.406Z,17.92
2023-04-21T12:25:52.498Z,17.96
2023-04-21T12:28:00.215Z,17.95
2023-04-21T12:30:03.607Z,17.99
2023-04-21T12:32:08.578Z,18.01
2023-04-21T12:34:11.959Z,18.04
2023-04-21T12:36:16.802Z,18.11
2023-04-21T12:38:19.882Z,18.09
2023-04-21T12:40:23.258Z,17.96
2023-04-21T12:42:26.463Z,17.99
2023-04-21T12:44:29.718Z,18.01
2023-04-21T12:46:32.833Z,18.00
2023-04-21T12:48:35.912Z,17.92
2023-04-21T12:50:39.104Z,17.88
2023-04-21T12:52:43.822Z,17.75
2023-04-21T12:54:46.941Z,17.77
2023-04-21T12:56:50.070Z,17.82
2023-04-21T12:58:53.130Z,17.87
2023-04-21T13:00:56.439Z,17.96
2023-04-21T13:03:00.058Z,18.06
2023-04-21T13:05:04.955Z,18.04
2023-04-21T13:07:08.095Z,17.99
2023-04-21T13:09:12.628Z,18.00
2023-04-21T13:11:15.745Z,17.96
2023-04-21T13:13:19.078Z,18.01
2023-04-21T13:15:22.318Z,18.06
2023-04-21T13:17:25.911Z,18.11
2023-04-21T13:19:30.038Z,18.14
2023-04-21T13:21:33.758Z,18.15
2023-04-21T13:23:36.937Z,18.14
2023-04-21T13:25:41.799Z,18.11
2023-04-21T13:27:46.776Z,18.08
2023-04-21T13:29:49.828Z,18.11
2023-04-21T13:31:52.881Z,18.11
2023-04-21T13:33:56.533Z,18.16
2023-04-21T13:35:59.843Z,18.16
2023-04-21T13:38:02.917Z,18.15
2023-04-21T13:40:08.146Z,18.25
2023-04-21T13:42:12.653Z,18.32
2023-04-21T13:44:16.043Z,18.35
2023-04-21T13:46:19.803Z,18.38
2023-04-21T13:48:24.292Z,18.34
2023-04-21T13:50:27.717Z,18.32
2023-04-21T13:52:31.116Z,18.36
2023-04-21T13:54:34.595Z,18.41
2023-04-21T13:56:37.801Z,18.42
2023-04-21T13:58:42.379Z,18.45
2023-04-21T14:00:45.466Z,18.52
2023-04-21T14:02:49.493Z,18.52
2023-04-21T14:04:53.527Z,18.55
2023-04-21T14:06:56.858Z,18.59
2023-04-21T14:09:00.036Z,18.63
2023-04-21T14:11:04.243Z,18.70
2023-04-21T14:13:07.442Z,18.74
2023-04-21T14:15:13.113Z,18.72
2023-04-21T14:17:17.084Z,18.68
2023-04-21T14:19:20.230Z,18.65
2023-04-21T14:21:23.496Z,18.66
2023-04-21T14:23:26.686Z,18.72
2023-04-21T14:25:29.715Z,18.77
2023-04-21T14:27:33.850Z,18.81
2023-04-21T14:29:37.095Z,18.83
2023-04-21T14:31:41.874Z,18.86
2023-04-21T14:33:45.067Z,18.89
2023-04-21T14:35:48.212Z,18.89
2023-04-21T14:37:53.341Z,18.88
2023-04-21T14:39:57.826Z,18.84
2023-04-21T14:42:01.737Z,18.81
2023-04-21T14:44:04.906Z,18.84
2023-04-21T14:46:08.126Z,18.90
2023-04-21T14:48:14.101Z,18.98
2023-04-21T14:50:17.467Z,19.02
2023-04-21T14:52:20.784Z,19.02
2023-04-21T14:54:24.155Z,19.05
2023-04-21T14:56:27.413Z,19.07
2023-04-21T14:58:30.688Z,19.09
2023-04-21T15:00:34.920Z,19.14
2023-04-21T15:02:39.546Z,19.22
2023-04-21T15:04:44.331Z,19.30
2023-04-21T15:06:47.627Z,19.32
2023-04-21T15:08:51.071Z,19.29
2023-04-21T15:10:54.180Z,19.29
2023-04-21T15:12:57.276Z,19.31
2023-04-21T15:15:00.549Z,19.34
2023-04-21T15:17:03.954Z,19.33
2023-04-21T15:19:07.386Z,19.33
2023-04-21T15:21:11.916Z,19.35
2023-04-21T15:23:15.273Z,19.40
2023-04-21T15:25:18.601Z,19.43
2023-04-21T15:27:21.858Z,19.43
2023-04-21T15:29:25.102Z,19.39
2023-04-21T15:31:29.158Z,19.37
2023-04-21T15:33:32.270Z,19.40
2023-04-21T15:35:35.415Z,19.38
2023-04-21T15:37:39.899Z,19.37
2023-04-21T15:39:43.062Z,19.35
2023-04-21T15:41:46.175Z,19.31
2023-04-21T15:43:49.337Z,19.26
2023-04-21T15:45:52.601Z,19.21
2023-04-21T15:47:55.916Z,19.17
2023-04-21T15:49:59.108Z,19.12
2023-04-21T15:52:03.368Z,19.06
2023-04-21T15:54:07.780Z,19.02
2023-04-21T15:56:12.278Z,18.98
2023-04-21T15:58:15.612Z,18.94
2023-04-21T16:00:19.262Z,18.89
2023-04-21T16:02:22.714Z,18.83
2023-04-21T16:04:26.140Z,18.77
2023-04-21T16:06:30.805Z,18.70
2023-04-21T16:08:34.121Z,18.66
2023-04-21T16:10:38.548Z,18.66
2023-04-21T16:12:44.551Z,18.62
2023-04-21T16:14:56.050Z,18.59
2023-04-21T16:17:05.229Z,18.60
2023-04-21T16:19:08.599Z,18.61
2023-04-21T16:21:11.696Z,18.58
2023-04-21T16:23:15.160Z,18.56
2023-04-21T16:25:18.859Z,18.52
2023-04-21T16:27:24.806Z,18.48
2023-04-21T16:29:28.021Z,18.45
2023-04-21T16:31:31.480Z,18.41
2023-04-21T16:33:34.737Z,18.37
2023-04-21T16:35:38.518Z,18.30
2023-04-21T16:37:44.233Z,18.25
2023-04-21T16:39:47.349Z,18.23
2023-04-21T16:41:50.634Z,18.21
2023-04-21T16:43:55.081Z,18.20
2023-04-21T16:45:58.276Z,18.18
2023-04-21T16:48:01.556Z,18.18
2023-04-21T16:50:05.804Z,18.17
2023-04-21T16:52:08.891Z,18.19
2023-04-21T16:54:12.190Z,18.16
2023-04-21T16:56:15.569Z,18.13
2023-04-21T16:58:18.850Z,18.11
2023-04-21T17:00:23.390Z,18.10
2023-04-21T17:02:27.905Z,18.10
2023-04-21T17:04:31.158Z,18.10
2023-04-21T17:06:34.270Z,18.10
2023-04-21T17:08:37.392Z,18.12
2023-04-21T17:10:40.610Z,18.10
2023-04-21T17:12:43.904Z,18.10
2023-04-21T17:14:48.553Z,18.07
2023-04-21T17:16:53.120Z,18.07
2023-04-21T17:18:57.106Z,18.06
2023-04-21T17:21:00.289Z,18.05
2023-04-21T17:23:03.437Z,18.02
2023-04-21T17:25:07.344Z,17.99
2023-04-21T17:27:11.264Z,17.98
2023-04-21T17:29:14.659Z,17.94
2023-04-21T17:31:17.940Z,17.92
2023-04-21T17:33:22.517Z,17.90
2023-04-21T17:35:25.687Z,17.89
2023-04-21T17:37:30.083Z,17.84
2023-04-21T17:39:33.464Z,17.82
2023-04-21T17:41:37.066Z,17.79
2023-04-21T17:43:40.289Z,17.78
2023-04-21T17:45:43.447Z,17.76
2023-04-21T17:47:46.606Z,17.73
2023-04-21T17:49:51.212Z,17.69
2023-04-21T17:51:54.470Z,17.65
2023-04-21T17:53:57.548Z,17.60
2023-04-21T17:56:01.235Z,17.55
2023-04-21T17:58:04.469Z,17.53
2023-04-21T18:00:11.412Z,17.49
2023-04-21T18:02:14.658Z,17.46
2023-04-21T18:04:18.636Z,17.43
2023-04-21T18:06:23.308Z,17.39
2023-04-21T18:08:26.864Z,17.36
2023-04-21T18:10:30.202Z,17.33
2023-04-21T18:12:33.397Z,17.31
2023-04-21T18:14:36.713Z,17.28
2023-04-21T18:16:40.073Z,17.24
2023-04-21T18:18:43.352Z,17.21
2023-04-21T18:20:46.670Z,17.22
2023-04-21T18:22:51.957Z,17.21
2023-04-21T18:24:55.461Z,17.21
2023-04-21T18:26:58.577Z,17.20
2023-04-21T18:29:02.918Z,17.19
2023-04-21T18:31:06.203Z,17.17
2023-04-21T18:33:09.641Z,17.13
2023-04-21T18:35:12.744Z,17.10
2023-04-21T18:37:15.895Z,17.08
2023-04-21T18:39:20.558Z,17.05
2023-04-21T18:41:23.665Z,17.03
2023-04-21T18:43:26.774Z,17.01
2023-04-21T18:45:29.930Z,16.98
2023-04-21T18:47:33.014Z,16.95
2023-04-21T18:49:36.237Z,16.92
2023-04-21T18:51:39.332Z,16.89
2023-04-21T18:53:43.637Z,16.84
2023-04-21T18:55:48.133Z,16.80
2023-04-21T18:57:51.293Z,16.76
2023-04-21T18:59:54.532Z,16.74
2023-04-21T19:01:57.880Z,16.72
2023-04-21T19:04:01.282Z,16.73
2023-04-21T19:06:04.842Z,16.75
2023-04-21T19:08:09.796Z,16.75
2023-04-21T19:10:13.062Z,16.74
2023-04-21T19:12:17.592Z,16.75
2023-04-21T19:14:20.930Z,16.75
2023-04-21T19:16:24.108Z,16.72
2023-04-21T19:18:27.421Z,16.70
2023-04-21T19:20:32.345Z,16.68
2023-04-21T19:22:36.253Z,16.67
2023-04-21T19:24:39.808Z,16.67
2023-04-21T19:26:43.168Z,16.66
2023-04-21T19:28:47.571Z,16.66
2023-04-21T19:30:50.787Z,16.68
2023-04-21T19:32:53.871Z,16.68
2023-04-21T19:34:57.076Z,16.66
2023-04-21T19:37:00.442Z,16.67
2023-04-21T19:39:04.077Z,16.66
2023-04-21T19:41:07.144Z,16.60
2023-04-21T19:43:10.292Z,16.52
2023-04-21T19:45:15.217Z,16.48
2023-04-21T19:47:18.292Z,16.42
2023-04-21T19:49:21.463Z,16.35
2023-04-21T19:51:24.732Z,16.32
2023-04-21T19:53:27.965Z,16.28
2023-04-21T19:55:31.239Z,16.24
2023-04-21T19:57:34.499Z,16.20
2023-04-21T19:59:37.796Z,16.18
2023-04-21T20:01:42.506Z,16.14
2023-04-21T20:03:47.838Z,16.10
2023-04-21T20:05:51.402Z,16.08
2023-04-21T20:07:54.843Z,16.09
2023-04-21T20:09:58.704Z,16.09
2023-04-21T20:12:02.007Z,16.10
2023-04-21T20:14:05.072Z,16.03
2023-04-21T20:16:08.238Z,16.00
2023-04-21T20:18:13.052Z,15.97
2023-04-21T20:20:16.615Z,15.93
2023-04-21T20:22:19.805Z,15.88
2023-04-21T20:24:23.171Z,15.84
2023-04-21T20:26:26.681Z,15.80
2023-04-21T20:28:29.804Z,15.78
2023-04-21T20:30:32.919Z,15.75
2023-04-21T20:32:36.632Z,15.72
2023-04-21T20:34:41.473Z,15.68
2023-04-21T20:36:44.804Z,15.63
2023-04-21T20:38:49.347Z,15.59
2023-04-21T20:40:53.186Z,15.57
2023-04-21T20:42:56.314Z,15.53
2023-04-21T20:45:02.119Z,15.47
2023-04-21T20:47:05.509Z,15.44
2023-04-21T20:49:08.823Z,15.42
2023-04-21T20:51:13.955Z,15.37
2023-04-21T20:53:17.343Z,15.34
2023-04-21T20:55:20.686Z,15.29
2023-04-21T20:57:26.710Z,15.27
2023-04-21T20:59:29.845Z,15.25
2023-04-21T21:01:36.811Z,15.22
2023-04-21T21:03:40.296Z,15.18
2023-04-21T21:05:43.588Z,15.14
2023-04-21T21:07:48.522Z,15.12
2023-04-21T21:09:52.070Z,15.09
2023-04-21T21:11:55.331Z,15.07
2023-04-21T21:13:58.620Z,15.05
2023-04-21T21:16:01.814Z,15.03
2023-04-21T21:18:05.607Z,15.00
2023-04-21T21:20:09.791Z,15.00
2023-04-21T21:22:12.872Z,14.97
2023-04-21T21:24:17.365Z,14.93
2023-04-21T21:26:20.593Z,14.92
2023-04-21T21:28:23.778Z,14.89
2023-04-21T21:30:26.996Z,14.87
2023-04-21T21:32:30.176Z,14.85
2023-04-21T21:34:33.399Z,14.82
2023-04-21T21:36:36.564Z,14.81
2023-04-21T21:38:39.776Z,14.79
2023-04-21T21:40:44.251Z,14.77
2023-04-21T21:42:47.351Z,14.75
2023-04-21T21:44:50.430Z,14.73
2023-04-21T21:46:53.566Z,14.71
2023-04-21T21:48:56.674Z,14.70
2023-04-21T21:50:59.798Z,14.66
2023-04-21T21:53:02.994Z,14.64
2023-04-21T21:55:07.220Z,14.61
2023-04-21T21:57:11.651Z,14.60
2023-04-21T21:59:14.738Z,14.58
2023-04-21T22:01:18.346Z,14.57
2023-04-21T22:03:22.037Z,14.55
2023-04-21T22:05:25.472Z,14.53
2023-04-21T22:07:29.407Z,14.51
2023-04-21T22:09:32.430Z,14.49
2023-04-21T22:11:36.933Z,14.48
2023-04-21T22:13:41.510Z,14.47
2023-04-21T22:15:44.620Z,14.46
2023-04-21T22:17:47.948Z,14.45
2023-04-21T22:19:51.039Z,14.44
2023-04-21T22:21:54.377Z,14.42
2023-04-21T22:23:57.459Z,14.42
2023-04-21T22:26:00.559Z,14.41
2023-04-21T22:28:03.686Z,14.37
2023-04-21T22:30:09.486Z,14.36
2023-04-21T22:32:12.654Z,14.34
2023-04-21T22:34:16.783Z,14.33
2023-04-21T22:36:20.143Z,14.29
2023-04-21T22:38:23.303Z,14.27
2023-04-21T22:40:26.466Z,14.26
2023-04-21T22:42:29.595Z,14.24
2023-04-21T22:44:32.667Z,14.24
2023-04-21T22:46:37.878Z,14.23
2023-04-21T22:48:41.360Z,14.20
2023-04-21T22:50:44.859Z,14.20
2023-04-21T22:52:48.027Z,14.18
2023-04-21T22:54:51.131Z,14.17
2023-04-21T22:56:54.305Z,14.14
2023-04-21T22:58:57.526Z,14.13
2023-04-21T23:01:00.707Z,14.07
2023-04-21T23:03:05.462Z,14.06
2023-04-21T23:05:09.453Z,14.05
2023-04-21T23:07:12.825Z,14.05
2023-04-21T23:09:16.347Z,14.03
2023-04-21T23:11:19.439Z,14.03
2023-04-21T23:13:22.511Z,14.02
2023-04-21T23:15:26.897Z,13.98
2023-04-21T23:17:29.998Z,13.94
2023-04-21T23:19:34.467Z,13.89
2023-04-21T23:21:37.523Z,13.87
2023-04-21T23:23:40.754Z,13.84
2023-04-21T23:25:43.761Z,13.83
2023-04-21T23:27:47.008Z,13.83
2023-04-21T23:29:50.054Z,13.83
2023-04-21T23:31:53.177Z,13.84
2023-04-21T23:33:56.263Z,13.83
2023-04-21T23:36:00.725Z,13.83
2023-04-21T23:38:03.907Z,13.84
2023-04-21T23:40:11.321Z,13.85
2023-04-21T23:42:14.450Z,13.85
2023-04-21T23:44:17.517Z,13.84
2023-04-21T23:46:20.636Z,13.84
2023-04-21T23:48:24.167Z,13.83
2023-04-21T23:50:27.315Z,13.82
2023-04-21T23:52:31.817Z,13.82
2023-04-21T23:54:35.608Z,13.80
2023-04-21T23:56:38.788Z,13.81
2023-04-21T23:58:41.883Z,13.78
